createdAt,value
2023-01-31T00:00:39.005Z,979
2023-01-31T00:01:48.522Z,979
2023-01-31T00:02:55.675Z,979
2023-01-31T00:04:02.758Z,979
2023-01-31T00:05:10.073Z,979
2023-01-31T00:06:17.911Z,979
2023-01-31T00:07:30.670Z,979
2023-01-31T00:08:38.436Z,979
2023-01-31T00:09:45.049Z,979
2023-01-31T00:10:52.031Z,979
2023-01-31T00:11:59.384Z,979
2023-01-31T00:13:07.242Z,979
2023-01-31T00:14:15.538Z,979
2023-01-31T00:15:23.042Z,979
2023-01-31T00:16:31.652Z,979
2023-01-31T00:17:39.511Z,979
2023-01-31T00:18:47.148Z,979
2023-01-31T00:19:54.744Z,979
2023-01-31T00:21:01.881Z,979
2023-01-31T00:22:14.266Z,979
2023-01-31T00:23:21.226Z,979
2023-01-31T00:24:29.414Z,979
2023-01-31T00:25:37.028Z,979
2023-01-31T00:26:44.380Z,979
2023-01-31T00:27:52.337Z,979
2023-01-31T00:29:01.239Z,979
2023-01-31T00:30:09.837Z,979
2023-01-31T00:31:17.588Z,979
2023-01-31T00:32:24.431Z,979
2023-01-31T00:33:32.116Z,979
2023-01-31T00:34:39.357Z,979
2023-01-31T00:35:47.723Z,979
2023-01-31T00:36:54.823Z,979
2023-01-31T00:38:03.033Z,979
2023-01-31T00:39:10.424Z,979
2023-01-31T00:40:17.354Z,980
2023-01-31T00:41:25.220Z,979
2023-01-31T00:42:32.620Z,980
2023-01-31T00:43:42.320Z,979
2023-01-31T00:44:49.477Z,979
2023-01-31T00:45:57.600Z,980
2023-01-31T00:47:04.656Z,980
2023-01-31T00:48:11.717Z,980
2023-01-31T00:49:18.953Z,980
2023-01-31T00:50:27.212Z,980
2023-01-31T00:51:35.205Z,980
2023-01-31T00:52:42.963Z,980
2023-01-31T00:53:50.457Z,980
2023-01-31T00:54:58.497Z,980
2023-01-31T00:56:06.692Z,980
2023-01-31T00:57:14.844Z,980
2023-01-31T00:58:22.035Z,980
2023-01-31T00:59:30.005Z,980
2023-01-31T01:00:37.703Z,980
2023-01-31T01:01:45.187Z,980
2023-01-31T01:02:52.985Z,980
2023-01-31T01:04:00.281Z,980
2023-01-31T01:05:08.267Z,980
2023-01-31T01:06:16.617Z,980
2023-01-31T01:07:23.655Z,980
2023-01-31T01:08:32.807Z,980
2023-01-31T01:09:40.819Z,980
2023-01-31T01:10:49.074Z,980
2023-01-31T01:11:57.566Z,980
2023-01-31T01:13:04.851Z,980
2023-01-31T01:14:13.172Z,980
2023-01-31T01:15:21.517Z,980
2023-01-31T01:16:28.602Z,980
2023-01-31T01:17:38.765Z,980
2023-01-31T01:18:47.288Z,980
2023-01-31T01:19:54.292Z,980
2023-01-31T01:21:01.697Z,980
2023-01-31T01:22:11.483Z,980
2023-01-31T01:23:20.488Z,980
2023-01-31T01:24:28.568Z,980
2023-01-31T01:25:35.513Z,980
2023-01-31T01:26:45.907Z,980
2023-01-31T01:27:53.368Z,980
2023-01-31T01:29:00.648Z,980
2023-01-31T01:30:08.883Z,980
2023-01-31T01:31:18.266Z,980
2023-01-31T01:32:25.558Z,980
2023-01-31T01:33:33.098Z,980
2023-01-31T01:34:40.587Z,980
2023-01-31T01:35:47.778Z,980
2023-01-31T01:36:55.136Z,980
2023-01-31T01:38:02.401Z,980
2023-01-31T01:39:10.596Z,980
2023-01-31T01:40:18.142Z,980
2023-01-31T01:41:27.359Z,980
2023-01-31T01:42:35.237Z,980
2023-01-31T01:43:43.642Z,980
2023-01-31T01:44:59.991Z,980
2023-01-31T01:46:07.203Z,980
2023-01-31T01:47:15.332Z,980
2023-01-31T01:48:27.837Z,980
2023-01-31T01:49:34.852Z,980
2023-01-31T01:50:43.225Z,980
2023-01-31T01:51:51.501Z,980
2023-01-31T01:53:00.103Z,980
2023-01-31T01:54:07.516Z,980
2023-01-31T01:55:15.007Z,980
2023-01-31T01:56:25.526Z,980
2023-01-31T01:57:33.895Z,980
2023-01-31T01:58:41.288Z,980
2023-01-31T01:59:53.480Z,980
2023-01-31T02:01:09.964Z,980
2023-01-31T02:02:17.365Z,980
2023-01-31T02:03:24.460Z,980
2023-01-31T02:04:31.884Z,980
2023-01-31T02:05:38.956Z,980
2023-01-31T02:06:52.735Z,980
2023-01-31T02:07:59.626Z,980
2023-01-31T02:09:07.596Z,980
2023-01-31T02:10:15.750Z,980
2023-01-31T02:11:23.019Z,980
2023-01-31T02:12:31.393Z,980
2023-01-31T02:13:40.114Z,980
2023-01-31T02:14:47.380Z,980
2023-01-31T02:15:54.695Z,980
2023-01-31T02:17:01.692Z,980
2023-01-31T02:18:08.784Z,980
2023-01-31T02:19:16.976Z,980
2023-01-31T02:20:24.469Z,980
2023-01-31T02:21:42.763Z,980
2023-01-31T02:22:55.142Z,980
2023-01-31T02:24:05.417Z,980
2023-01-31T02:25:18.959Z,980
2023-01-31T02:26:33.793Z,980
2023-01-31T02:27:52.463Z,981
2023-01-31T02:29:05.343Z,981
2023-01-31T02:30:22.949Z,981
2023-01-31T02:31:41.299Z,980
2023-01-31T02:32:54.501Z,980
2023-01-31T02:34:09.303Z,980
2023-01-31T02:35:23.600Z,981
2023-01-31T02:36:35.851Z,981
2023-01-31T02:37:52.757Z,981
2023-01-31T02:39:05.395Z,981
2023-01-31T02:40:15.451Z,980
2023-01-31T02:41:33.350Z,981
2023-01-31T02:42:52.048Z,981
2023-01-31T02:44:08.274Z,980
2023-01-31T02:45:30.990Z,980
2023-01-31T02:46:48.600Z,980
2023-01-31T02:48:03.886Z,980
2023-01-31T02:49:16.091Z,981
2023-01-31T02:50:26.296Z,981
2023-01-31T02:51:34.212Z,981
2023-01-31T02:52:42.467Z,981
2023-01-31T02:53:54.752Z,981
2023-01-31T02:55:10.289Z,981
2023-01-31T02:56:22.407Z,981
2023-01-31T02:57:34.545Z,981
2023-01-31T02:58:41.702Z,981
2023-01-31T02:59:51.656Z,981
2023-01-31T03:00:59.370Z,981
2023-01-31T03:02:07.234Z,981
2023-01-31T03:03:16.163Z,981
2023-01-31T03:04:25.994Z,981
2023-01-31T03:05:36.784Z,981
2023-01-31T03:06:45.015Z,981
2023-01-31T03:07:57.483Z,981
2023-01-31T03:09:04.989Z,981
2023-01-31T03:10:12.351Z,981
2023-01-31T03:11:24.585Z,981
2023-01-31T03:12:31.702Z,981
2023-01-31T03:13:49.407Z,981
2023-01-31T03:14:59.552Z,981
2023-01-31T03:16:10.152Z,981
2023-01-31T03:17:22.763Z,981
2023-01-31T03:18:45.954Z,981
2023-01-31T03:19:53.547Z,981
2023-01-31T03:21:06.195Z,981
2023-01-31T03:22:13.597Z,981
2023-01-31T03:23:21.781Z,981
2023-01-31T03:24:30.475Z,981
2023-01-31T03:25:37.823Z,981
2023-01-31T03:26:46.899Z,981
2023-01-31T03:27:54.213Z,981
2023-01-31T03:29:01.297Z,981
2023-01-31T03:30:08.777Z,981
2023-01-31T03:31:17.546Z,981
2023-01-31T03:32:27.479Z,981
2023-01-31T03:33:36.883Z,981
2023-01-31T03:34:44.485Z,981
2023-01-31T03:35:51.591Z,981
2023-01-31T03:37:07.644Z,981
2023-01-31T03:38:21.223Z,981
2023-01-31T03:39:31.311Z,981
2023-01-31T03:40:42.387Z,981
2023-01-31T03:41:52.583Z,981
2023-01-31T03:43:05.023Z,981
2023-01-31T03:44:18.223Z,981
2023-01-31T03:45:30.653Z,981
2023-01-31T03:46:47.091Z,981
2023-01-31T03:47:54.683Z,981
2023-01-31T03:49:01.860Z,981
2023-01-31T03:50:09.120Z,981
2023-01-31T03:51:17.411Z,982
2023-01-31T03:52:24.503Z,982
2023-01-31T03:53:36.130Z,982
2023-01-31T03:54:43.608Z,982
2023-01-31T03:55:52.554Z,982
2023-01-31T03:57:03.383Z,982
2023-01-31T03:58:10.655Z,982
2023-01-31T03:59:17.662Z,982
2023-01-31T04:00:26.048Z,982
2023-01-31T04:01:33.096Z,982
2023-01-31T04:02:41.690Z,982
2023-01-31T04:03:48.692Z,982
2023-01-31T04:04:56.112Z,982
2023-01-31T04:06:02.978Z,982
2023-01-31T04:07:10.181Z,982
2023-01-31T04:08:17.356Z,982
2023-01-31T04:09:24.468Z,982
2023-01-31T04:10:32.292Z,982
2023-01-31T04:11:40.679Z,982
2023-01-31T04:12:47.875Z,982
2023-01-31T04:13:56.130Z,982
2023-01-31T04:15:04.355Z,982
2023-01-31T04:16:12.682Z,982
2023-01-31T04:17:19.982Z,982
2023-01-31T04:18:28.041Z,982
2023-01-31T04:19:35.235Z,982
2023-01-31T04:20:42.981Z,982
2023-01-31T04:21:50.035Z,982
2023-01-31T04:22:57.709Z,982
2023-01-31T04:24:04.895Z,982
2023-01-31T04:25:12.757Z,982
2023-01-31T04:26:20.123Z,982
2023-01-31T04:27:27.728Z,982
2023-01-31T04:28:35.174Z,982
2023-01-31T04:29:42.000Z,982
2023-01-31T04:30:49.041Z,982
2023-01-31T04:31:58.969Z,982
2023-01-31T04:33:06.783Z,982
2023-01-31T04:34:13.966Z,982
2023-01-31T04:35:22.259Z,982
2023-01-31T04:36:28.882Z,982
2023-01-31T04:37:36.637Z,982
2023-01-31T04:38:43.225Z,982
2023-01-31T04:39:50.784Z,982
2023-01-31T04:40:57.777Z,982
2023-01-31T04:42:05.037Z,982
2023-01-31T04:43:12.038Z,982
2023-01-31T04:44:19.250Z,982
2023-01-31T04:45:26.283Z,982
2023-01-31T04:46:33.727Z,982
2023-01-31T04:47:40.754Z,982
2023-01-31T04:48:48.279Z,982
2023-01-31T04:49:57.147Z,982
2023-01-31T04:51:04.742Z,982
2023-01-31T04:52:12.391Z,982
2023-01-31T04:53:19.394Z,982
2023-01-31T04:54:26.639Z,982
2023-01-31T04:55:34.460Z,982
2023-01-31T04:56:42.964Z,982
2023-01-31T04:57:50.288Z,982
2023-01-31T04:58:57.579Z,982
2023-01-31T05:00:04.747Z,982
2023-01-31T05:01:12.268Z,982
2023-01-31T05:02:19.814Z,982
2023-01-31T05:03:27.827Z,982
2023-01-31T05:04:35.159Z,982
2023-01-31T05:05:42.721Z,982
2023-01-31T05:06:53.468Z,982
2023-01-31T05:08:00.772Z,982
2023-01-31T05:09:08.268Z,982
2023-01-31T05:10:16.634Z,982
2023-01-31T05:11:24.374Z,982
2023-01-31T05:12:32.735Z,982
2023-01-31T05:13:40.248Z,982
2023-01-31T05:14:48.151Z,982
2023-01-31T05:15:55.912Z,982
2023-01-31T05:17:03.509Z,982
2023-01-31T05:18:11.760Z,983
2023-01-31T05:19:19.827Z,983
2023-01-31T05:20:27.779Z,983
2023-01-31T05:21:35.214Z,983
2023-01-31T05:22:43.855Z,983
2023-01-31T05:23:53.081Z,983
2023-01-31T05:25:00.163Z,983
2023-01-31T05:26:07.336Z,983
2023-01-31T05:27:14.453Z,983
2023-01-31T05:28:22.494Z,983
2023-01-31T05:29:30.623Z,983
2023-01-31T05:30:38.008Z,983
2023-01-31T05:31:46.287Z,983
2023-01-31T05:32:59.039Z,983
2023-01-31T05:34:06.406Z,983
2023-01-31T05:35:14.123Z,983
2023-01-31T05:36:21.051Z,983
2023-01-31T05:37:29.020Z,983
2023-01-31T05:38:37.078Z,983
2023-01-31T05:39:43.691Z,983
2023-01-31T05:40:53.057Z,983
2023-01-31T05:42:00.183Z,983
2023-01-31T05:43:07.307Z,983
2023-01-31T05:44:14.511Z,983
2023-01-31T05:45:21.926Z,983
2023-01-31T05:46:28.825Z,983
2023-01-31T05:47:36.023Z,983
2023-01-31T05:48:45.040Z,983
2023-01-31T05:49:52.124Z,983
2023-01-31T05:51:00.880Z,983
2023-01-31T05:52:09.180Z,983
2023-01-31T05:53:16.614Z,983
2023-01-31T05:54:23.764Z,983
2023-01-31T05:55:32.369Z,983
2023-01-31T05:56:40.706Z,983
2023-01-31T05:57:47.618Z,983
2023-01-31T05:58:55.100Z,983
2023-01-31T06:00:03.632Z,983
2023-01-31T06:01:11.273Z,983
2023-01-31T06:02:18.485Z,983
2023-01-31T06:03:25.506Z,983
2023-01-31T06:04:33.542Z,983
2023-01-31T06:05:41.476Z,983
2023-01-31T06:06:48.691Z,983
2023-01-31T06:07:55.864Z,983
2023-01-31T06:09:03.838Z,983
2023-01-31T06:10:28.679Z,983
2023-01-31T06:11:36.479Z,983
2023-01-31T06:12:44.191Z,983
2023-01-31T06:13:51.513Z,983
2023-01-31T06:14:59.396Z,983
2023-01-31T06:16:06.139Z,983
2023-01-31T06:17:13.595Z,983
2023-01-31T06:18:22.048Z,983
2023-01-31T06:19:30.632Z,984
2023-01-31T06:20:37.539Z,984
2023-01-31T06:21:47.329Z,984
2023-01-31T06:22:54.453Z,984
2023-01-31T06:24:02.948Z,984
2023-01-31T06:25:11.285Z,984
2023-01-31T06:26:18.799Z,984
2023-01-31T06:27:27.959Z,984
2023-01-31T06:28:37.155Z,984
2023-01-31T06:29:45.644Z,984
2023-01-31T06:30:53.060Z,984
2023-01-31T06:32:00.347Z,984
2023-01-31T06:33:08.007Z,984
2023-01-31T06:34:15.543Z,984
2023-01-31T06:35:23.685Z,984
2023-01-31T06:36:32.865Z,984
2023-01-31T06:37:40.340Z,984
2023-01-31T06:38:49.599Z,984
2023-01-31T06:39:58.290Z,984
2023-01-31T06:41:05.678Z,984
2023-01-31T06:42:14.783Z,984
2023-01-31T06:43:22.602Z,984
2023-01-31T06:44:33.177Z,984
2023-01-31T06:45:42.429Z,984
2023-01-31T06:46:51.409Z,984
2023-01-31T06:48:01.025Z,984
2023-01-31T06:49:09.416Z,984
2023-01-31T06:50:17.460Z,984
2023-01-31T06:51:24.729Z,984
2023-01-31T06:52:33.735Z,984
2023-01-31T06:53:42.152Z,984
2023-01-31T06:54:50.874Z,984
2023-01-31T06:55:57.965Z,984
2023-01-31T06:57:06.017Z,984
2023-01-31T06:58:13.951Z,984
2023-01-31T06:59:21.325Z,984
2023-01-31T07:00:30.718Z,984
2023-01-31T07:01:38.033Z,984
2023-01-31T07:02:46.768Z,984
2023-01-31T07:03:54.398Z,984
2023-01-31T07:05:02.085Z,984
2023-01-31T07:06:09.981Z,984
2023-01-31T07:07:20.112Z,984
2023-01-31T07:08:28.643Z,984
2023-01-31T07:09:36.549Z,984
2023-01-31T07:10:44.846Z,984
2023-01-31T07:11:52.214Z,984
2023-01-31T07:12:59.147Z,984
2023-01-31T07:14:07.492Z,984
2023-01-31T07:15:16.549Z,985
2023-01-31T07:16:24.989Z,985
2023-01-31T07:17:33.257Z,985
2023-01-31T07:18:42.281Z,985
2023-01-31T07:19:49.666Z,985
2023-01-31T07:20:56.815Z,985
2023-01-31T07:22:05.167Z,985
2023-01-31T07:23:12.541Z,985
2023-01-31T07:24:21.146Z,985
2023-01-31T07:25:30.109Z,985
2023-01-31T07:26:37.589Z,985
2023-01-31T07:27:46.011Z,985
2023-01-31T07:28:54.471Z,985
2023-01-31T07:30:01.933Z,985
2023-01-31T07:31:09.288Z,985
2023-01-31T07:32:16.595Z,985
2023-01-31T07:33:24.915Z,985
2023-01-31T07:34:32.312Z,985
2023-01-31T07:35:40.251Z,985
2023-01-31T07:36:48.147Z,985
2023-01-31T07:37:56.386Z,985
2023-01-31T07:39:04.619Z,985
2023-01-31T07:40:11.972Z,985
2023-01-31T07:41:19.777Z,985
2023-01-31T07:42:28.851Z,985
2023-01-31T07:43:36.238Z,985
2023-01-31T07:44:43.375Z,985
2023-01-31T07:45:50.391Z,985
2023-01-31T07:46:57.681Z,985
2023-01-31T07:48:05.110Z,985
2023-01-31T07:49:14.414Z,985
2023-01-31T07:50:23.202Z,985
2023-01-31T07:51:30.221Z,985
2023-01-31T07:52:37.406Z,985
2023-01-31T07:53:45.171Z,985
2023-01-31T07:54:53.273Z,985
2023-01-31T07:56:02.011Z,985
2023-01-31T07:57:17.431Z,985
2023-01-31T07:58:25.746Z,985
2023-01-31T07:59:33.255Z,985
2023-01-31T08:00:40.747Z,985
2023-01-31T08:01:54.369Z,985
2023-01-31T08:03:07.538Z,985
2023-01-31T08:04:25.341Z,985
2023-01-31T08:05:33.102Z,985
2023-01-31T08:06:40.249Z,985
2023-01-31T08:07:49.067Z,985
2023-01-31T08:08:56.162Z,985
2023-01-31T08:10:03.347Z,985
2023-01-31T08:11:11.636Z,985
2023-01-31T08:12:21.033Z,985
2023-01-31T08:13:28.247Z,985
2023-01-31T08:14:36.281Z,985
2023-01-31T08:15:45.378Z,985
2023-01-31T08:16:53.191Z,985
2023-01-31T08:18:00.606Z,985
2023-01-31T08:19:08.269Z,985
2023-01-31T08:20:16.696Z,985
2023-01-31T08:21:23.761Z,985
2023-01-31T08:22:31.793Z,985
2023-01-31T08:23:39.068Z,985
2023-01-31T08:24:46.099Z,985
2023-01-31T08:25:53.211Z,985
2023-01-31T08:27:03.336Z,985
2023-01-31T08:28:10.547Z,985
2023-01-31T08:29:17.681Z,985
2023-01-31T08:30:25.754Z,985
2023-01-31T08:31:33.072Z,985
2023-01-31T08:32:41.576Z,985
2023-01-31T08:33:48.900Z,985
2023-01-31T08:34:56.765Z,985
2023-01-31T08:36:05.312Z,985
2023-01-31T08:37:18.638Z,985
2023-01-31T08:38:26.575Z,985
2023-01-31T08:39:33.610Z,985
2023-01-31T08:40:41.108Z,985
2023-01-31T08:41:49.265Z,985
2023-01-31T08:42:56.764Z,985
2023-01-31T08:44:04.955Z,986
2023-01-31T08:45:12.324Z,986
2023-01-31T08:46:20.307Z,986
2023-01-31T08:47:31.424Z,986
2023-01-31T08:48:39.318Z,986
2023-01-31T08:49:47.079Z,986
2023-01-31T08:50:54.383Z,986
2023-01-31T08:52:01.752Z,986
2023-01-31T08:53:09.096Z,986
2023-01-31T08:54:17.419Z,986
2023-01-31T08:55:24.636Z,986
2023-01-31T08:56:32.461Z,986
2023-01-31T08:57:49.090Z,986
2023-01-31T08:58:50.100Z,986
2023-01-31T08:59:57.863Z,986
2023-01-31T09:01:05.211Z,986
2023-01-31T09:02:16.335Z,986
2023-01-31T09:03:24.648Z,986
2023-01-31T09:04:32.366Z,986
2023-01-31T09:05:40.263Z,986
2023-01-31T09:06:47.760Z,986
2023-01-31T09:07:56.427Z,986
2023-01-31T09:09:05.547Z,986
2023-01-31T09:10:14.092Z,986
2023-01-31T09:11:24.173Z,986
2023-01-31T09:12:31.322Z,986
2023-01-31T09:13:39.447Z,986
2023-01-31T09:14:46.522Z,986
2023-01-31T09:15:54.592Z,986
2023-01-31T09:17:01.932Z,986
2023-01-31T09:18:09.074Z,986
2023-01-31T09:19:16.493Z,986
2023-01-31T09:20:28.803Z,986
2023-01-31T09:21:38.854Z,986
2023-01-31T09:22:48.045Z,986
2023-01-31T09:23:56.518Z,986
2023-01-31T09:25:03.986Z,986
2023-01-31T09:26:13.264Z,986
2023-01-31T09:27:20.314Z,986
2023-01-31T09:28:28.876Z,986
2023-01-31T09:29:36.058Z,986
2023-01-31T09:30:43.290Z,986
2023-01-31T09:31:50.420Z,986
2023-01-31T09:32:58.456Z,986
2023-01-31T09:34:07.001Z,986
2023-01-31T09:35:14.454Z,986
2023-01-31T09:36:22.524Z,986
2023-01-31T09:37:29.715Z,986
2023-01-31T09:38:38.310Z,986
2023-01-31T09:39:46.181Z,986
2023-01-31T09:40:53.971Z,986
2023-01-31T09:42:01.997Z,986
2023-01-31T09:43:19.654Z,986
2023-01-31T09:44:29.741Z,986
2023-01-31T09:45:37.483Z,986
2023-01-31T09:46:45.298Z,986
2023-01-31T09:47:57.453Z,986
2023-01-31T09:49:04.864Z,986
2023-01-31T09:50:13.794Z,986
2023-01-31T09:51:26.017Z,986
2023-01-31T09:52:33.431Z,986
2023-01-31T09:53:41.298Z,986
2023-01-31T09:54:50.517Z,986
2023-01-31T09:55:59.635Z,986
2023-01-31T09:57:17.365Z,986
2023-01-31T09:58:24.941Z,986
2023-01-31T09:59:33.125Z,986
2023-01-31T10:00:47.334Z,986
2023-01-31T10:01:58.128Z,986
2023-01-31T10:03:08.520Z,986
2023-01-31T10:04:23.145Z,986
2023-01-31T10:05:39.485Z,986
2023-01-31T10:06:48.623Z,986
2023-01-31T10:08:05.007Z,986
2023-01-31T10:09:17.109Z,986
2023-01-31T10:10:24.637Z,986
2023-01-31T10:11:38.482Z,986
2023-01-31T10:12:53.099Z,986
2023-01-31T10:14:03.151Z,986
2023-01-31T10:15:22.068Z,986
2023-01-31T10:16:37.269Z,986
2023-01-31T10:17:52.576Z,986
2023-01-31T10:19:01.633Z,986
2023-01-31T10:20:13.705Z,986
2023-01-31T10:21:24.529Z,986
2023-01-31T10:22:41.652Z,986
2023-01-31T10:23:55.128Z,986
2023-01-31T10:25:03.128Z,986
2023-01-31T10:26:16.161Z,986
2023-01-31T10:27:25.486Z,986
2023-01-31T10:28:34.663Z,986
2023-01-31T10:29:51.917Z,986
2023-01-31T10:30:59.388Z,986
2023-01-31T10:32:10.457Z,986
2023-01-31T10:33:25.768Z,986
2023-01-31T10:34:41.326Z,986
2023-01-31T10:35:49.516Z,986
2023-01-31T10:36:57.596Z,986
2023-01-31T10:38:15.081Z,986
2023-01-31T10:39:26.808Z,986
2023-01-31T10:40:47.626Z,986
2023-01-31T10:42:00.108Z,986
2023-01-31T10:43:16.545Z,986
2023-01-31T10:44:26.585Z,986
2023-01-31T10:45:34.166Z,986
2023-01-31T10:46:41.965Z,986
2023-01-31T10:47:50.403Z,986
2023-01-31T10:48:59.397Z,986
2023-01-31T10:50:07.872Z,986
2023-01-31T10:51:18.394Z,986
2023-01-31T10:52:34.971Z,986
2023-01-31T10:53:48.560Z,986
2023-01-31T10:55:04.407Z,986
2023-01-31T10:56:23.699Z,986
2023-01-31T10:57:36.645Z,986
2023-01-31T10:58:44.519Z,986
2023-01-31T10:59:54.377Z,986
2023-01-31T11:01:02.444Z,986
2023-01-31T11:02:11.699Z,986
2023-01-31T11:03:25.084Z,986
2023-01-31T11:04:32.912Z,986
2023-01-31T11:05:40.453Z,986
2023-01-31T11:06:53.122Z,986
2023-01-31T11:08:03.153Z,986
2023-01-31T11:09:12.469Z,986
2023-01-31T11:10:21.354Z,986
2023-01-31T11:11:35.239Z,986
2023-01-31T11:12:42.980Z,986
2023-01-31T11:13:55.420Z,986
2023-01-31T11:15:10.617Z,986
2023-01-31T11:16:21.872Z,986
2023-01-31T11:17:29.332Z,986
2023-01-31T11:18:38.906Z,986
2023-01-31T11:19:46.493Z,986
2023-01-31T11:20:58.638Z,986
2023-01-31T11:22:05.794Z,986
2023-01-31T11:23:14.025Z,986
2023-01-31T11:24:20.975Z,986
2023-01-31T11:25:29.294Z,986
2023-01-31T11:26:37.218Z,986
2023-01-31T11:27:44.714Z,985
2023-01-31T11:28:53.069Z,985
2023-01-31T11:30:02.119Z,985
2023-01-31T11:31:11.402Z,985
2023-01-31T11:32:22.683Z,985
2023-01-31T11:33:31.102Z,985
2023-01-31T11:34:45.690Z,985
2023-01-31T11:35:58.387Z,985
2023-01-31T11:37:05.841Z,985
2023-01-31T11:38:22.441Z,985
2023-01-31T11:39:31.763Z,985
2023-01-31T11:40:39.230Z,985
2023-01-31T11:41:47.670Z,985
2023-01-31T11:42:55.423Z,985
2023-01-31T11:44:07.179Z,985
2023-01-31T11:45:15.581Z,985
2023-01-31T11:46:23.927Z,985
2023-01-31T11:47:33.240Z,985
2023-01-31T11:48:51.267Z,985
2023-01-31T11:49:59.394Z,985
2023-01-31T11:51:07.795Z,985
2023-01-31T11:52:17.070Z,985
2023-01-31T11:53:24.346Z,985
2023-01-31T11:54:36.705Z,985
2023-01-31T11:55:44.607Z,985
2023-01-31T11:56:55.762Z,985
2023-01-31T11:58:02.337Z,985
2023-01-31T11:59:14.945Z,985
2023-01-31T12:00:23.845Z,985
2023-01-31T12:01:30.946Z,985
2023-01-31T12:02:40.466Z,985
2023-01-31T12:04:01.100Z,985
2023-01-31T12:05:05.910Z,985
2023-01-31T12:06:16.784Z,985
2023-01-31T12:07:29.137Z,985
2023-01-31T12:08:37.068Z,985
2023-01-31T12:09:47.927Z,985
2023-01-31T12:10:55.611Z,985
2023-01-31T12:12:05.889Z,985
2023-01-31T12:13:18.400Z,985
2023-01-31T12:14:22.422Z,985
2023-01-31T12:15:37.225Z,985
2023-01-31T12:16:46.098Z,985
2023-01-31T12:17:54.626Z,985
2023-01-31T12:19:03.085Z,985
2023-01-31T12:20:27.407Z,985
2023-01-31T12:21:34.562Z,985
2023-01-31T12:22:52.816Z,985
2023-01-31T12:24:11.226Z,985
2023-01-31T12:25:25.879Z,985
2023-01-31T12:26:33.145Z,985
2023-01-31T12:27:52.133Z,985
2023-01-31T12:29:11.647Z,985
2023-01-31T12:30:21.016Z,985
2023-01-31T12:31:37.902Z,985
2023-01-31T12:32:57.514Z,985
2023-01-31T12:34:15.643Z,985
2023-01-31T12:35:34.025Z,985
2023-01-31T12:36:47.801Z,985
2023-01-31T12:38:04.002Z,985
2023-01-31T12:39:22.402Z,985
2023-01-31T12:40:40.210Z,985
2023-01-31T12:41:47.617Z,985
2023-01-31T12:42:59.434Z,985
2023-01-31T12:44:07.891Z,985
2023-01-31T12:45:26.977Z,985
2023-01-31T12:46:43.216Z,985
2023-01-31T12:48:00.835Z,985
2023-01-31T12:49:17.619Z,985
2023-01-31T12:50:35.517Z,985
2023-01-31T12:51:43.325Z,985
2023-01-31T12:52:56.515Z,985
2023-01-31T12:54:16.576Z,985
2023-01-31T12:55:29.718Z,985
2023-01-31T12:56:41.977Z,985
2023-01-31T12:58:04.215Z,985
2023-01-31T12:59:16.565Z,985
2023-01-31T13:00:31.524Z,985
2023-01-31T13:01:46.811Z,985
2023-01-31T13:03:03.265Z,985
2023-01-31T13:04:18.114Z,985
2023-01-31T13:05:33.479Z,985
2023-01-31T13:06:43.231Z,985
2023-01-31T13:07:51.516Z,985
2023-01-31T13:09:08.707Z,985
2023-01-31T13:10:15.672Z,985
2023-01-31T13:11:29.060Z,985
2023-01-31T13:12:41.735Z,985
2023-01-31T13:13:50.926Z,985
2023-01-31T13:15:03.270Z,985
2023-01-31T13:16:12.190Z,985
2023-01-31T13:17:25.002Z,985
2023-01-31T13:18:33.214Z,985
2023-01-31T13:19:41.809Z,985
2023-01-31T13:21:00.655Z,985
2023-01-31T13:22:08.333Z,985
2023-01-31T13:23:16.640Z,985
2023-01-31T13:24:26.398Z,985
2023-01-31T13:25:43.837Z,985
2023-01-31T13:26:51.766Z,985
2023-01-31T13:28:02.927Z,985
2023-01-31T13:29:18.583Z,985
2023-01-31T13:30:27.385Z,985
2023-01-31T13:31:43.749Z,985
2023-01-31T13:32:52.120Z,985
2023-01-31T13:33:59.555Z,985
2023-01-31T13:35:14.663Z,985
2023-01-31T13:36:21.944Z,985
2023-01-31T13:37:40.586Z,985
2023-01-31T13:38:49.187Z,985
2023-01-31T13:39:58.229Z,985
2023-01-31T13:41:06.737Z,985
2023-01-31T13:42:17.639Z,985
2023-01-31T13:43:26.962Z,985
2023-01-31T13:44:34.873Z,985
2023-01-31T13:45:43.241Z,985
2023-01-31T13:46:53.406Z,985
2023-01-31T13:48:00.712Z,985
2023-01-31T13:49:09.518Z,984
2023-01-31T13:50:23.156Z,985
2023-01-31T13:51:33.818Z,985
2023-01-31T13:52:51.376Z,984
2023-01-31T13:53:57.248Z,984
2023-01-31T13:55:09.605Z,984
2023-01-31T13:56:21.219Z,985
2023-01-31T13:57:35.859Z,985
2023-01-31T13:58:46.198Z,985
2023-01-31T13:59:54.552Z,984
2023-01-31T14:01:11.424Z,985
2023-01-31T14:02:24.157Z,985
2023-01-31T14:03:32.517Z,985
2023-01-31T14:04:51.066Z,985
2023-01-31T14:05:59.441Z,985
2023-01-31T14:07:08.386Z,985
2023-01-31T14:08:22.484Z,985
2023-01-31T14:09:36.149Z,985
2023-01-31T14:10:46.982Z,985
2023-01-31T14:11:53.917Z,985
2023-01-31T14:13:04.493Z,985
2023-01-31T14:14:17.896Z,985
2023-01-31T14:15:25.524Z,985
2023-01-31T14:16:41.795Z,985
2023-01-31T14:17:51.284Z,985
2023-01-31T14:19:00.851Z,984
2023-01-31T14:20:09.388Z,984
2023-01-31T14:21:29.234Z,985
2023-01-31T14:22:40.432Z,984
2023-01-31T14:23:49.474Z,984
2023-01-31T14:24:56.835Z,984
2023-01-31T14:26:07.822Z,984
2023-01-31T14:27:25.052Z,984
2023-01-31T14:28:38.174Z,984
2023-01-31T14:29:45.847Z,984
2023-01-31T14:30:58.950Z,984
2023-01-31T14:32:07.526Z,984
2023-01-31T14:33:22.504Z,984
2023-01-31T14:34:33.255Z,984
2023-01-31T14:35:42.030Z,984
2023-01-31T14:36:57.380Z,984
2023-01-31T14:38:10.683Z,984
2023-01-31T14:39:23.233Z,984
2023-01-31T14:40:40.912Z,984
2023-01-31T14:41:57.108Z,984
2023-01-31T14:43:11.447Z,984
2023-01-31T14:44:24.432Z,984
2023-01-31T14:45:44.374Z,984
2023-01-31T14:47:04.349Z,984
2023-01-31T14:48:18.138Z,984
2023-01-31T14:49:36.548Z,984
2023-01-31T14:50:54.609Z,984
2023-01-31T14:52:04.857Z,984
2023-01-31T14:53:21.211Z,984
2023-01-31T14:54:38.183Z,984
2023-01-31T14:55:50.662Z,984
2023-01-31T14:57:09.374Z,984
2023-01-31T14:58:17.179Z,984
2023-01-31T14:59:25.219Z,984
2023-01-31T15:00:37.922Z,984
2023-01-31T15:01:45.544Z,984
2023-01-31T15:02:54.243Z,984
2023-01-31T15:04:10.861Z,984
2023-01-31T15:05:19.595Z,984
2023-01-31T15:06:32.559Z,984
2023-01-31T15:07:41.746Z,984
2023-01-31T15:09:00.239Z,984
2023-01-31T15:10:19.801Z,984
2023-01-31T15:11:41.693Z,984
2023-01-31T15:12:42.136Z,984
2023-01-31T15:14:01.755Z,984
2023-01-31T15:15:20.694Z,984
2023-01-31T15:16:37.473Z,984
2023-01-31T15:17:45.631Z,984
2023-01-31T15:18:54.573Z,984
2023-01-31T15:20:02.929Z,984
2023-01-31T15:21:19.689Z,984
2023-01-31T15:22:27.118Z,984
2023-01-31T15:23:35.661Z,984
2023-01-31T15:24:43.180Z,984
2023-01-31T15:25:50.408Z,984
2023-01-31T15:26:58.799Z,984
2023-01-31T15:28:07.102Z,984
2023-01-31T15:29:14.881Z,984
2023-01-31T15:30:28.735Z,984
2023-01-31T15:31:38.170Z,984
2023-01-31T15:32:47.187Z,984
2023-01-31T15:33:58.668Z,984
2023-01-31T15:35:07.051Z,984
2023-01-31T15:36:19.630Z,984
2023-01-31T15:37:27.106Z,984
2023-01-31T15:38:34.809Z,984
2023-01-31T15:39:43.144Z,984
2023-01-31T15:40:51.074Z,984
2023-01-31T15:42:12.355Z,984
2023-01-31T15:43:29.701Z,984
2023-01-31T15:44:39.602Z,984
2023-01-31T15:45:48.218Z,984
2023-01-31T15:46:55.981Z,984
2023-01-31T15:48:05.634Z,984
2023-01-31T15:49:28.868Z,984
2023-01-31T15:50:30.974Z,984
2023-01-31T15:51:39.995Z,984
2023-01-31T15:52:47.017Z,984
2023-01-31T15:53:53.998Z,984
2023-01-31T15:55:04.651Z,984
2023-01-31T15:56:12.253Z,984
2023-01-31T15:57:26.741Z,984
2023-01-31T15:58:39.761Z,984
2023-01-31T15:59:50.293Z,984
2023-01-31T16:00:58.381Z,984
2023-01-31T16:02:06.761Z,984